Cairns AAF (Fort Rucker) Air Field
KOZR : now visible

Airfield :











YOU CAN JOIN US ON...

 
LOGIN :

Register | Disclaimer

   EN    FR    IT 

 









Legend :    VFR   Marginal VFR   IFR   Intensive IFR   Very Intensive IFR
Visi :
Ceiling :
>= 8 km
>= 3000ft
5 to 8 km
1000 to 3000 ft
1500m to 5 km
500 to 1000 ft
800 to 1500m
200 to 500 ft
< 800m
< 200 ft
Symbols :   Thunderstorms  Fog  Heavy snow  Heavy precipitations  Wind > 20 kt







- Airport Elevation : 301 ft


KOZR - Cairns AAF (Fort Rucker) Air Field

CURRENT METAR :
  • 201556Z AUTO 26013KT 10SM CLR 18/03 A2990 RMK AO2 PK WND 24028/03 SLP127 T01760031

EXPIRED METARs :
  • 201456Z AUTO 26016G22KT 10SM CLR 16/05 A2990 RMK AO2 SLP127 T01580048 52010
  • 201356Z AUTO 24016KT 10SM CLR 13/06 A2989 RMK AO2 SLP124 T01330062

TAF TAF KOZR
Valid from the 20 at 08:00 until the 21 at 14:00 UTC


200800Z 2008/2114 26009KT 9999 FEW030 QNH2980INS
BECMG 2014/2015 27015G25KT 9999 SKC QNH2989INS
BECMG 2023/2024 VRB06KT 9999 SKC QNH2993INS TX20/2021Z TN06/2108Z LAST NO AMDS AFT 2008 NEXT 2011
KZJX FIR / North America



MET'MAP, your aeronautical weather chart ! - Copyright ORBIFLY December 2007 - Disclaimer

ORBIFLY MET'MAP TEAM :

Programming & Development : Alexandra Zaïnal
Concept & Development : Baudouin d'Aumeries
Co-Development & Prog : Marc-Olivier Méhu
Technical & hardware support : Manuel Goepfert

Contact : metmap@orbifly.com




SOURCES & CREDITS :

   NOAA       Earth
Advisory